Mill Village, Pennsylvania
Current Conditions -  °F | °C
As of 12:51 PM on Thursday 23 Oct 2014 (Local Time) from KERI Reporting Station
Clear Clear  
Wind Chill: 55°   Ceiling: Unl
Heat Index: 55°   Visibility: 10mi
Dew Point: 42°   Wind: 7mph
Humidity: 62%   Direction: 330°NNW
Pressure: 30.15"   Gusts: NA
Location:  41.88°N, 79.97°W
Report Text: KERI 231651Z 33006KT 10SM CLR 13/06 A3015 RMK AO2 SLP213 T01280056
Loading
Personal Weather Stations






























Interactive Weather Map
Tropical Storm Tracking
New forecast layout! Learn more

10-Day Weather Forecast

Advertisements
Track Severe Weather on mobile